createdAt,value
2019-03-25T00:00:30.939Z,6.00
2019-03-25T00:11:30.798Z,5.80
2019-03-25T00:22:30.617Z,4.40
2019-03-25T00:33:30.568Z,4.60
2019-03-25T00:44:30.446Z,3.50
2019-03-25T00:55:30.252Z,4.90
2019-03-25T01:06:30.115Z,3.90
2019-03-25T01:17:30.021Z,4.10
2019-03-25T01:28:29.873Z,3.10
2019-03-25T01:39:29.771Z,3.70
2019-03-25T01:50:29.629Z,4.70
2019-03-25T02:01:29.505Z,3.60
2019-03-25T02:12:29.371Z,3.50
2019-03-25T02:23:29.300Z,3.90
2019-03-25T02:34:29.124Z,3.10
2019-03-25T02:45:29.002Z,3.60
2019-03-25T02:56:28.883Z,3.40
2019-03-25T03:07:28.745Z,3.80
2019-03-25T03:18:28.620Z,3.80
2019-03-25T03:29:28.496Z,3.40
2019-03-25T03:40:28.375Z,4.70
2019-03-25T03:51:28.257Z,3.80
2019-03-25T04:02:28.141Z,4.80
2019-03-25T04:13:28.037Z,5.90
2019-03-25T04:24:27.888Z,4.60
2019-03-25T04:35:27.761Z,4.70
2019-03-25T04:46:27.634Z,5.90
2019-03-25T04:57:27.511Z,6.10
2019-03-25T05:08:27.391Z,6.40
2019-03-25T05:19:28.169Z,6.50
2019-03-25T05:30:27.147Z,4.60
2019-03-25T05:41:27.026Z,5.70
2019-03-25T05:52:26.897Z,6.10
2019-03-25T06:03:26.772Z,7.10
2019-03-25T06:14:26.648Z,5.50
2019-03-25T06:25:26.689Z,5.40
2019-03-25T06:36:26.424Z,6.00
2019-03-25T06:47:26.289Z,6.50
2019-03-25T06:58:26.166Z,5.00
2019-03-25T07:09:26.046Z,5.40
2019-03-25T07:20:25.912Z,5.60
2019-03-25T07:31:25.795Z,7.00
2019-03-25T07:42:25.677Z,4.00
2019-03-25T07:53:25.536Z,3.40
2019-03-25T08:04:25.424Z,3.80
2019-03-25T08:15:25.308Z,5.40
2019-03-25T08:26:25.165Z,4.40
2019-03-25T08:37:25.064Z,5.90
2019-03-25T08:48:24.913Z,5.00
2019-03-25T08:59:24.793Z,4.60
2019-03-25T09:10:24.658Z,4.60
2019-03-25T09:21:24.547Z,4.90
2019-03-25T09:32:24.413Z,4.20
2019-03-25T09:43:24.286Z,4.10
2019-03-25T09:54:24.164Z,4.00
2019-03-25T10:05:24.059Z,4.40
2019-03-25T10:16:23.938Z,4.10
2019-03-25T10:27:23.808Z,4.10
2019-03-25T10:38:23.777Z,3.70
2019-03-25T10:49:23.545Z,2.70
2019-03-25T11:00:23.418Z,2.00
2019-03-25T11:11:23.312Z,1.80
2019-03-25T11:22:23.177Z,2.60
2019-03-25T11:33:23.090Z,2.20
2019-03-25T11:44:23.025Z,2.40
2019-03-25T11:55:22.807Z,2.90
2019-03-25T12:06:22.678Z,1.50
2019-03-25T12:17:22.544Z,2.20
2019-03-25T12:28:22.434Z,1.60
2019-03-25T12:39:22.343Z,1.50
2019-03-25T12:50:22.192Z,3.10
2019-03-25T13:01:22.043Z,1.50
2019-03-25T13:12:21.916Z,1.90
2019-03-25T13:23:21.832Z,1.80
2019-03-25T13:34:21.677Z,2.00
2019-03-25T13:45:21.543Z,2.40
2019-03-25T13:56:21.427Z,2.10
2019-03-25T14:07:21.305Z,1.60
2019-03-25T14:18:21.172Z,2.10
2019-03-25T14:29:21.063Z,1.90
2019-03-25T14:40:20.927Z,1.70
2019-03-25T14:51:20.823Z,1.80
2019-03-25T15:02:20.680Z,1.80
2019-03-25T15:13:20.562Z,1.20
2019-03-25T15:24:20.438Z,1.90
2019-03-25T15:35:20.306Z,0.90
2019-03-25T15:46:20.176Z,1.80
2019-03-25T15:57:20.053Z,1.30
2019-03-25T16:08:19.932Z,1.40
2019-03-25T16:19:19.814Z,1.20
2019-03-25T16:30:19.680Z,1.30
2019-03-25T16:41:19.558Z,1.40
2019-03-25T16:52:19.432Z,3.10
2019-03-25T17:03:19.309Z,1.40
2019-03-25T17:14:19.186Z,3.70
2019-03-25T17:25:19.065Z,1.20
2019-03-25T17:36:18.940Z,1.40
2019-03-25T17:47:18.822Z,1.40
2019-03-25T17:58:18.752Z,1.50
2019-03-25T18:09:18.571Z,1.40
2019-03-25T18:20:19.093Z,0.50
2019-03-25T18:31:18.311Z,2.20
2019-03-25T18:42:18.189Z,1.10
2019-03-25T18:53:18.063Z,1.20
2019-03-25T19:04:17.947Z,2.10
2019-03-25T19:15:17.833Z,3.70
2019-03-25T19:26:17.696Z,2.90
2019-03-25T19:37:17.569Z,2.90
2019-03-25T19:48:17.458Z,2.90
2019-03-25T19:59:17.361Z,2.40
2019-03-25T20:10:17.234Z,3.10
2019-03-25T20:21:17.144Z,2.50
2019-03-25T20:32:16.958Z,3.70
2019-03-25T20:43:16.845Z,3.80
2019-03-25T20:54:16.708Z,4.20
2019-03-25T21:05:16.691Z,4.40
2019-03-25T21:16:16.520Z,4.20
2019-03-25T21:27:16.377Z,3.70
2019-03-25T21:38:16.212Z,4.00
2019-03-25T21:49:16.100Z,3.70
2019-03-25T22:00:15.975Z,3.40
2019-03-25T22:11:15.845Z,2.40
2019-03-25T22:22:15.731Z,4.00
2019-03-25T22:33:25.302Z,3.90
2019-03-25T22:44:15.474Z,5.00
2019-03-25T22:55:15.355Z,3.70
2019-03-25T23:06:15.229Z,5.40
2019-03-25T23:17:15.118Z,4.30
2019-03-25T23:28:14.980Z,4.90
2019-03-25T23:39:14.864Z,5.50
2019-03-25T23:50:14.741Z,5.00
